Time;durP1;ratioP1;P1;durP2;ratioP2;P2;SDS_P1;SDS_P2;PMS_P1;PMS_P2;Temp;Humidity;BMP_temperature;BMP_pressure;BME280_temperature;BME280_humidity;BME280_pressure;Samples;Min_cycle;Max_cycle;Signal;HPM_P1;HPM_P2
2024/03/23 00:02:29;;;;;;;4.90;2.80;;;;;;;;;;4983370;28;20530;-64
2024/03/23 00:04:56;;;;;;;5.35;2.70;;;;;;;;;;4997653;28;20053;-66
2024/03/23 00:07:23;;;;;;;7.80;4.22;;;;;;;;;;4992731;28;20026;-66
2024/03/23 00:09:50;;;;;;;8.07;3.63;;;;;;;;;;4992264;28;20027;-64
2024/03/23 00:12:17;;;;;;;6.72;4.13;;;;;;;;;;4988296;28;20046;-65
2024/03/23 00:14:44;;;;;;;6.38;3.22;;;;;;;;;;4990898;28;20053;-66
2024/03/23 00:17:11;;;;;;;4.63;2.83;;;;;;;;;;4990430;28;20200;-65
2024/03/23 00:19:39;;;;;;;4.93;2.80;;;;;;;;;;4990683;28;20482;-65
2024/03/23 00:22:06;;;;;;;2.72;2.42;;;;;;;;;;4988258;28;20022;-66
2024/03/23 00:24:33;;;;;;;6.03;2.63;;;;;;;;;;4989278;28;20034;-65
2024/03/23 00:27:00;;;;;;;3.65;2.60;;;;;;;;;;4990160;28;20042;-64
2024/03/23 00:29:28;;;;;;;2.95;2.45;;;;;;;;;;4990918;28;20026;-65
2024/03/23 00:31:55;;;;;;;4.25;2.80;;;;;;;;;;4987890;28;20038;-65
2024/03/23 00:34:22;;;;;;;5.15;2.67;;;;;;;;;;4994518;28;20401;-65
2024/03/23 00:36:49;;;;;;;3.17;2.53;;;;;;;;;;4990991;28;20045;-65
2024/03/23 00:39:16;;;;;;;7.53;2.50;;;;;;;;;;4992292;28;20053;-66
2024/03/23 00:41:44;;;;;;;8.98;2.53;;;;;;;;;;4991247;28;20038;-64
2024/03/23 00:44:11;;;;;;;7.93;2.70;;;;;;;;;;4993882;28;20157;-65
2024/03/23 00:46:38;;;;;;;6.55;2.50;;;;;;;;;;4997121;28;20045;-65
2024/03/23 00:49:05;;;;;;;3.45;2.38;;;;;;;;;;4988246;28;20046;-65
2024/03/23 00:51:32;;;;;;;5.97;2.30;;;;;;;;;;4991157;28;20043;-66
2024/03/23 00:53:59;;;;;;;5.72;3.22;;;;;;;;;;4999873;28;20058;-66
2024/03/23 00:56:25;;;;;;;3.60;2.42;;;;;;;;;;4992692;28;20060;-66
2024/03/23 00:58:51;;;;;;;3.90;2.85;;;;;;;;;;4997012;28;20046;-66
2024/03/23 01:01:17;;;;;;;4.95;2.50;;;;;;;;;;4992651;28;20033;-66
2024/03/23 01:03:43;;;;;;;5.30;2.67;;;;;;;;;;4996544;28;20053;-64
2024/03/23 01:06:09;;;;;;;4.10;2.70;;;;;;;;;;4981284;28;20034;-64
2024/03/23 01:08:35;;;;;;;5.32;2.90;;;;;;;;;;4994180;28;20399;-65
2024/03/23 01:11:02;;;;;;;4.78;2.85;;;;;;;;;;4991625;28;20042;-64
2024/03/23 01:13:28;;;;;;;5.97;2.85;;;;;;;;;;4993718;28;20429;-65
2024/03/23 01:15:55;;;;;;;2.75;2.47;;;;;;;;;;4976149;28;20034;-65
2024/03/23 01:18:22;;;;;;;4.55;2.90;;;;;;;;;;4986489;28;20031;-65
2024/03/23 01:20:49;;;;;;;3.60;2.70;;;;;;;;;;4993255;28;20046;-65
2024/03/23 01:23:15;;;;;;;3.25;2.55;;;;;;;;;;4975638;28;20042;-64
2024/03/23 01:25:41;;;;;;;3.92;2.40;;;;;;;;;;4993786;28;20057;-65
2024/03/23 01:28:07;;;;;;;4.47;2.30;;;;;;;;;;4995669;28;20501;-64
2024/03/23 01:30:34;;;;;;;4.55;2.13;;;;;;;;;;4993162;28;20038;-64
2024/03/23 01:33:01;;;;;;;4.65;2.40;;;;;;;;;;4975727;28;20629;-64
2024/03/23 01:35:27;;;;;;;3.25;2.30;;;;;;;;;;4993776;28;20057;-64
2024/03/23 01:37:53;;;;;;;4.60;2.55;;;;;;;;;;4996143;28;20050;-64
2024/03/23 01:40:20;;;;;;;4.65;2.70;;;;;;;;;;4997009;28;20039;-64
2024/03/23 01:42:56;;;;;;;3.70;2.28;;;;;;;;;;4995775;28;20057;-64
2024/03/23 01:45:23;;;;;;;4.55;2.35;;;;;;;;;;4993750;28;20026;-64
2024/03/23 01:47:55;;;;;;;3.45;2.33;;;;;;;;;;4995759;28;20046;-64
2024/03/23 01:50:21;;;;;;;3.22;2.42;;;;;;;;;;4993597;28;20041;-64
2024/03/23 01:52:48;;;;;;;5.63;2.78;;;;;;;;;;4995936;28;20042;-64
2024/03/23 01:55:14;;;;;;;4.15;2.80;;;;;;;;;;4999360;28;20038;-64
2024/03/23 01:57:41;;;;;;;6.13;2.70;;;;;;;;;;4992384;28;20520;-64
2024/03/23 02:00:08;;;;;;;6.43;2.72;;;;;;;;;;4998075;28;20026;-64
2024/03/23 02:02:45;;;;;;;5.75;2.83;;;;;;;;;;4995262;28;20493;-64
2024/03/23 02:05:13;;;;;;;2.80;2.40;;;;;;;;;;4990045;28;20033;-64
2024/03/23 02:07:39;;;;;;;4.65;2.63;;;;;;;;;;5000436;28;20366;-66
2024/03/23 02:10:10;;;;;;;4.63;2.63;;;;;;;;;;4995908;28;20038;-65
2024/03/23 02:12:37;;;;;;;4.10;2.45;;;;;;;;;;4989357;28;20528;-64
2024/03/23 02:15:03;;;;;;;6.00;2.55;;;;;;;;;;4991782;28;20049;-64
2024/03/23 02:17:34;;;;;;;3.92;2.75;;;;;;;;;;4993294;28;20053;-65
2024/03/23 02:20:02;;;;;;;5.82;2.65;;;;;;;;;;4993392;28;20038;-65
2024/03/23 02:22:38;;;;;;;4.20;2.60;;;;;;;;;;4992319;28;20379;-64
2024/03/23 02:25:05;;;;;;;3.22;2.55;;;;;;;;;;4991999;28;20038;-63
2024/03/23 02:27:33;;;;;;;3.83;2.90;;;;;;;;;;4990560;28;20057;-64
2024/03/23 02:29:59;;;;;;;7.25;2.50;;;;;;;;;;4994962;28;20054;-63
2024/03/23 02:32:25;;;;;;;5.18;2.60;;;;;;;;;;4993345;28;20049;-64
2024/03/23 02:34:51;;;;;;;6.22;2.50;;;;;;;;;;4992058;28;20030;-64
2024/03/23 02:37:17;;;;;;;4.10;2.35;;;;;;;;;;4992881;28;20430;-63
2024/03/23 02:39:43;;;;;;;6.18;2.53;;;;;;;;;;4992021;28;20038;-64
2024/03/23 02:42:09;;;;;;;5.55;2.53;;;;;;;;;;4990076;28;20049;-63
2024/03/23 02:44:35;;;;;;;5.32;2.30;;;;;;;;;;4978496;28;20421;-63
2024/03/23 02:47:02;;;;;;;6.65;2.70;;;;;;;;;;4993950;28;20050;-64
2024/03/23 02:49:28;;;;;;;4.63;2.47;;;;;;;;;;4988925;28;20050;-64
2024/03/23 02:51:54;;;;;;;4.90;2.42;;;;;;;;;;4990165;28;20478;-64
2024/03/23 02:54:20;;;;;;;4.07;2.40;;;;;;;;;;4996390;28;20037;-63
2024/03/23 02:56:46;;;;;;;5.10;2.53;;;;;;;;;;4990046;28;20049;-64
2024/03/23 02:59:12;;;;;;;6.43;2.50;;;;;;;;;;4995874;28;20042;-64
2024/03/23 03:01:38;;;;;;;3.85;2.60;;;;;;;;;;4989062;28;20045;-63
2024/03/23 03:04:05;;;;;;;4.78;3.22;;;;;;;;;;4993818;28;20407;-64
2024/03/23 03:06:31;;;;;;;3.42;2.13;;;;;;;;;;4991944;28;20046;-64
2024/03/23 03:08:57;;;;;;;3.22;2.70;;;;;;;;;;4988729;28;20034;-64
2024/03/23 03:11:23;;;;;;;6.25;2.20;;;;;;;;;;4988519;28;20045;-64
2024/03/23 03:13:50;;;;;;;6.32;2.53;;;;;;;;;;4990925;28;20383;-64
2024/03/23 03:16:16;;;;;;;5.95;2.45;;;;;;;;;;4988311;28;20502;-63
2024/03/23 03:18:42;;;;;;;3.42;2.33;;;;;;;;;;4989902;28;20038;-64
2024/03/23 03:21:10;;;;;;;4.53;2.20;;;;;;;;;;4991610;28;20046;-64
2024/03/23 03:23:37;;;;;;;3.55;2.47;;;;;;;;;;4992493;28;20497;-64
2024/03/23 03:26:04;;;;;;;5.68;2.80;;;;;;;;;;4990188;28;20051;-64
2024/03/23 03:28:32;;;;;;;4.28;2.55;;;;;;;;;;4989350;28;20054;-64
2024/03/23 03:30:59;;;;;;;3.92;2.65;;;;;;;;;;4989002;28;20054;-64
2024/03/23 03:33:27;;;;;;;3.95;2.83;;;;;;;;;;4990028;28;20058;-64
2024/03/23 03:35:54;;;;;;;5.00;2.50;;;;;;;;;;4993062;28;20042;-66
2024/03/23 03:38:20;;;;;;;4.50;2.40;;;;;;;;;;4989751;28;20034;-64
2024/03/23 03:40:46;;;;;;;4.13;2.72;;;;;;;;;;4989417;28;20045;-63
2024/03/23 03:43:12;;;;;;;4.38;2.33;;;;;;;;;;4991250;28;20026;-64
2024/03/23 03:45:40;;;;;;;5.45;2.83;;;;;;;;;;4991666;28;20030;-64
2024/03/23 03:48:07;;;;;;;3.38;2.55;;;;;;;;;;4988428;28;20063;-65
2024/03/23 03:50:33;;;;;;;3.42;2.50;;;;;;;;;;4989166;28;20053;-64
2024/03/23 03:52:59;;;;;;;5.22;2.63;;;;;;;;;;4995941;28;20069;-66
2024/03/23 03:55:25;;;;;;;5.93;2.90;;;;;;;;;;4993168;28;20052;-65
2024/03/23 03:57:51;;;;;;;3.20;2.80;;;;;;;;;;4990736;28;20493;-64
2024/03/23 04:00:17;;;;;;;4.13;2.95;;;;;;;;;;4990045;28;20180;-64
2024/03/23 04:02:43;;;;;;;5.55;2.88;;;;;;;;;;4991908;28;20042;-64
2024/03/23 04:05:09;;;;;;;3.85;2.60;;;;;;;;;;4990028;28;20049;-65
2024/03/23 04:07:35;;;;;;;3.67;2.67;;;;;;;;;;4989828;28;20057;-65
2024/03/23 04:10:05;;;;;;;4.13;2.60;;;;;;;;;;4986214;28;20042;-64
2024/03/23 04:12:33;;;;;;;6.82;2.60;;;;;;;;;;4985315;28;20529;-64
2024/03/23 04:15:00;;;;;;;3.85;2.67;;;;;;;;;;4991191;28;20049;-65
2024/03/23 04:17:31;;;;;;;5.35;2.67;;;;;;;;;;4988707;28;20038;-65
2024/03/23 04:19:58;;;;;;;6.60;3.15;;;;;;;;;;4987238;28;20053;-63
2024/03/23 04:22:26;;;;;;;6.53;3.40;;;;;;;;;;4991372;28;20046;-64
2024/03/23 04:24:56;;;;;;;6.22;3.00;;;;;;;;;;4987586;28;20046;-65
2024/03/23 04:27:23;;;;;;;3.55;2.63;;;;;;;;;;4990930;28;20499;-65
2024/03/23 04:29:50;;;;;;;7.35;3.53;;;;;;;;;;4990866;28;20041;-64
2024/03/23 04:32:16;;;;;;;3.75;2.80;;;;;;;;;;4987769;28;20053;-64
2024/03/23 04:34:43;;;;;;;3.92;2.88;;;;;;;;;;4990547;28;20043;-65
2024/03/23 04:37:10;;;;;;;4.60;2.85;;;;;;;;;;4982620;28;20545;-65
2024/03/23 04:39:36;;;;;;;4.97;2.90;;;;;;;;;;4992357;28;20042;-65
2024/03/23 04:42:04;;;;;;;3.60;2.47;;;;;;;;;;4988341;28;20406;-64
2024/03/23 04:44:30;;;;;;;4.22;2.55;;;;;;;;;;4994336;28;20033;-64
2024/03/23 04:46:57;;;;;;;3.65;2.60;;;;;;;;;;4994457;28;20046;-64
2024/03/23 04:49:24;;;;;;;7.55;2.70;;;;;;;;;;4990512;28;20493;-65
2024/03/23 04:51:50;;;;;;;4.43;2.85;;;;;;;;;;4990071;28;20046;-66
2024/03/23 04:54:16;;;;;;;4.88;3.20;;;;;;;;;;4992302;28;20393;-64
2024/03/23 04:56:42;;;;;;;5.80;2.90;;;;;;;;;;4989895;28;20041;-64
2024/03/23 04:59:08;;;;;;;5.00;2.72;;;;;;;;;;4997667;28;20042;-65
2024/03/23 05:01:35;;;;;;;7.10;3.00;;;;;;;;;;4989409;28;20054;-66
2024/03/23 05:04:03;;;;;;;5.07;3.28;;;;;;;;;;4991489;28;20502;-63
2024/03/23 05:06:29;;;;;;;5.57;3.13;;;;;;;;;;4993636;28;20050;-64
2024/03/23 05:08:55;;;;;;;4.70;3.28;;;;;;;;;;4988101;28;20081;-65
2024/03/23 05:11:21;;;;;;;4.72;3.13;;;;;;;;;;4989833;28;20034;-64
2024/03/23 05:13:47;;;;;;;5.35;3.08;;;;;;;;;;4988587;28;20050;-64
2024/03/23 05:16:13;;;;;;;6.38;3.15;;;;;;;;;;4989070;28;20035;-65
2024/03/23 05:18:39;;;;;;;6.15;3.15;;;;;;;;;;4989936;28;20057;-64
2024/03/23 05:21:05;;;;;;;4.05;2.97;;;;;;;;;;4987149;28;20065;-64
2024/03/23 05:23:31;;;;;;;6.90;3.10;;;;;;;;;;4992071;28;20065;-65
2024/03/23 05:25:57;;;;;;;5.85;3.60;;;;;;;;;;4997100;28;20050;-65
2024/03/23 05:28:23;;;;;;;5.72;3.03;;;;;;;;;;4991577;28;20030;-65
2024/03/23 05:30:56;;;;;;;5.05;2.53;;;;;;;;;;4991680;28;20046;-64
2024/03/23 05:33:23;;;;;;;5.03;3.25;;;;;;;;;;4987425;28;20414;-65
2024/03/23 05:36:00;;;;;;;3.47;3.17;;;;;;;;;;4992494;28;20053;-66
2024/03/23 05:38:26;;;;;;;4.28;3.50;;;;;;;;;;4994043;28;20049;-66
2024/03/23 05:40:59;;;;;;;4.47;3.10;;;;;;;;;;4990217;28;20034;-66
2024/03/23 05:43:25;;;;;;;7.05;3.90;;;;;;;;;;4972145;28;20166;-66
2024/03/23 05:45:59;;;;;;;10.00;4.15;;;;;;;;;;4990297;28;20066;-67
2024/03/23 05:48:26;;;;;;;6.05;3.90;;;;;;;;;;4978026;28;20045;-67
2024/03/23 05:50:52;;;;;;;6.93;4.10;;;;;;;;;;4990680;28;20486;-68
2024/03/23 05:53:20;;;;;;;4.78;4.25;;;;;;;;;;4973783;28;20506;-67
2024/03/23 05:55:49;;;;;;;6.75;4.60;;;;;;;;;;4996851;28;20049;-67
2024/03/23 05:58:16;;;;;;;9.27;5.45;;;;;;;;;;4993381;28;20054;-66
2024/03/23 06:00:43;;;;;;;8.63;5.40;;;;;;;;;;4976428;28;20418;-67
2024/03/23 06:03:10;;;;;;;7.63;5.28;;;;;;;;;;4989067;28;20061;-68
2024/03/23 06:05:37;;;;;;;8.25;5.78;;;;;;;;;;4993088;28;20046;-68
2024/03/23 06:08:04;;;;;;;9.05;5.90;;;;;;;;;;4988818;28;20037;-64
2024/03/23 06:10:31;;;;;;;9.40;6.03;;;;;;;;;;4988030;28;20054;-65
2024/03/23 06:12:59;;;;;;;11.35;6.03;;;;;;;;;;4990108;28;20413;-64
2024/03/23 06:15:27;;;;;;;11.80;6.60;;;;;;;;;;4993347;28;20053;-64
2024/03/23 06:17:53;;;;;;;9.95;5.97;;;;;;;;;;4991296;28;20498;-63
2024/03/23 06:20:19;;;;;;;13.65;6.70;;;;;;;;;;4995787;28;20050;-63
2024/03/23 06:22:45;;;;;;;11.60;6.85;;;;;;;;;;4990207;28;20053;-62
2024/03/23 06:25:12;;;;;;;10.93;5.95;;;;;;;;;;4991349;28;20050;-63
2024/03/23 06:27:39;;;;;;;11.38;5.95;;;;;;;;;;4990562;28;20050;-63
2024/03/23 06:30:06;;;;;;;12.50;7.22;;;;;;;;;;4992563;28;20030;-63
2024/03/23 06:32:32;;;;;;;9.82;6.18;;;;;;;;;;4988346;28;20429;-63
2024/03/23 06:34:58;;;;;;;8.57;5.88;;;;;;;;;;4991824;28;20050;-63
2024/03/23 06:37:25;;;;;;;8.70;5.80;;;;;;;;;;4990617;28;20043;-63
2024/03/23 06:39:54;;;;;;;5.95;3.38;;;;;;;;;;4991185;28;20042;-63
2024/03/23 06:42:20;;;;;;;7.88;4.90;;;;;;;;;;4996185;28;20042;-63
2024/03/23 06:44:46;;;;;;;6.97;4.40;;;;;;;;;;4990142;28;20054;-62
2024/03/23 06:47:13;;;;;;;8.98;4.57;;;;;;;;;;4994536;28;20046;-63
2024/03/23 06:49:39;;;;;;;5.93;4.10;;;;;;;;;;4996429;28;20222;-62
2024/03/23 06:52:05;;;;;;;7.25;4.55;;;;;;;;;;4989377;28;20045;-62
2024/03/23 06:54:31;;;;;;;6.30;3.83;;;;;;;;;;4996637;28;20064;-62
2024/03/23 06:56:57;;;;;;;6.50;3.70;;;;;;;;;;4995822;28;20038;-62
2024/03/23 06:59:23;;;;;;;6.57;4.25;;;;;;;;;;4992289;28;20053;-62
2024/03/23 07:01:50;;;;;;;6.22;3.92;;;;;;;;;;4990045;28;20038;-63
2024/03/23 07:04:16;;;;;;;6.70;4.68;;;;;;;;;;4996945;28;20065;-63
2024/03/23 07:06:44;;;;;;;5.28;2.30;;;;;;;;;;4990180;28;20490;-63
2024/03/23 07:09:10;;;;;;;4.43;3.00;;;;;;;;;;4989660;28;20050;-63
2024/03/23 07:11:36;;;;;;;8.18;3.65;;;;;;;;;;4991358;28;20031;-62
2024/03/23 07:14:02;;;;;;;6.70;3.40;;;;;;;;;;4989157;28;20038;-63
2024/03/23 07:16:29;;;;;;;5.10;2.67;;;;;;;;;;4991091;28;20481;-63
2024/03/23 07:18:55;;;;;;;3.00;2.20;;;;;;;;;;4991261;28;20061;-63
2024/03/23 07:21:22;;;;;;;3.97;2.47;;;;;;;;;;4989933;28;20062;-63
2024/03/23 07:23:48;;;;;;;2.78;1.70;;;;;;;;;;4986300;28;20053;-63
2024/03/23 07:26:14;;;;;;;2.40;1.30;;;;;;;;;;4989499;28;20053;-64
2024/03/23 07:28:44;;;;;;;1.35;1.20;;;;;;;;;;4992621;28;20402;-63
2024/03/23 07:31:12;;;;;;;4.38;1.88;;;;;;;;;;4989272;28;20517;-63
2024/03/23 07:33:46;;;;;;;2.55;1.60;;;;;;;;;;4990556;28;20057;-61
2024/03/23 07:36:13;;;;;;;2.13;1.15;;;;;;;;;;4985352;28;20038;-62
2024/03/23 07:38:44;;;;;;;1.88;1.15;;;;;;;;;;4991452;28;20057;-63
2024/03/23 07:41:14;;;;;;;0.82;0.80;;;;;;;;;;4994581;28;20046;-62
2024/03/23 07:43:40;;;;;;;1.48;0.95;;;;;;;;;;4988765;28;20053;-63
2024/03/23 07:46:06;;;;;;;2.67;1.00;;;;;;;;;;4988666;28;20096;-62
2024/03/23 07:48:33;;;;;;;2.75;1.02;;;;;;;;;;4992836;28;20045;-62
2024/03/23 07:51:10;;;;;;;2.83;1.05;;;;;;;;;;4990707;28;20061;-62
2024/03/23 07:53:37;;;;;;;0.85;0.57;;;;;;;;;;4990466;28;20054;-62
2024/03/23 07:56:10;;;;;;;1.45;0.65;;;;;;;;;;4988213;28;20421;-63
2024/03/23 07:58:37;;;;;;;1.45;1.20;;;;;;;;;;4991863;28;20061;-62
2024/03/23 08:01:09;;;;;;;2.05;1.10;;;;;;;;;;4988509;28;20041;-62
2024/03/23 08:03:37;;;;;;;1.83;1.27;;;;;;;;;;4985300;28;20066;-62
2024/03/23 08:06:10;;;;;;;1.02;0.93;;;;;;;;;;4988826;28;20042;-62
2024/03/23 08:08:36;;;;;;;1.52;0.93;;;;;;;;;;4986142;28;20050;-62
2024/03/23 08:11:03;;;;;;;1.23;0.50;;;;;;;;;;4989652;28;20497;-61
2024/03/23 08:13:30;;;;;;;0.50;0.50;;;;;;;;;;4985895;28;20038;-61
2024/03/23 08:16:00;;;;;;;0.77;0.70;;;;;;;;;;4986589;28;20050;-61
2024/03/23 08:18:27;;;;;;;0.63;0.60;;;;;;;;;;4984547;28;20514;-62
2024/03/23 08:20:59;;;;;;;0.70;0.60;;;;;;;;;;4986669;28;20053;-62
2024/03/23 08:23:27;;;;;;;0.40;0.40;;;;;;;;;;4989715;28;20053;-61
2024/03/23 08:26:00;;;;;;;1.10;0.38;;;;;;;;;;4989573;28;20050;-62
2024/03/23 08:28:27;;;;;;;0.45;0.38;;;;;;;;;;4988058;28;20402;-61
2024/03/23 08:30:54;;;;;;;0.50;0.50;;;;;;;;;;4991005;28;20501;-62
2024/03/23 08:33:22;;;;;;;0.50;0.50;;;;;;;;;;4988500;28;20039;-62
2024/03/23 08:35:55;;;;;;;1.45;0.70;;;;;;;;;;4985018;28;20042;-61
2024/03/23 08:38:22;;;;;;;1.40;0.88;;;;;;;;;;4991725;28;20045;-61
2024/03/23 08:40:59;;;;;;;1.35;0.60;;;;;;;;;;4991997;28;20041;-61
2024/03/23 08:43:26;;;;;;;1.50;0.88;;;;;;;;;;4988834;28;20057;-61
2024/03/23 08:45:53;;;;;;;1.30;0.70;;;;;;;;;;4988020;28;20034;-61
2024/03/23 08:48:23;;;;;;;0.60;0.60;;;;;;;;;;4980437;28;20053;-61
2024/03/23 08:51:05;;;;;;;;;;;;;;;;;;4988818;28;20498;-61
2024/03/23 08:53:31;;;;;;;3.03;1.30;;;;;;;;;;4995691;28;19921;-62
2024/03/23 08:55:58;;;;;;;2.25;1.58;;;;;;;;;;4987754;28;20046;-63
2024/03/23 08:58:25;;;;;;;2.42;1.77;;;;;;;;;;4992015;28;20049;-62
2024/03/23 09:00:52;;;;;;;2.20;1.20;;;;;;;;;;4991524;28;20053;-61
2024/03/23 09:03:18;;;;;;;2.05;1.30;;;;;;;;;;4986626;28;20616;-62
2024/03/23 09:05:45;;;;;;;4.22;1.80;;;;;;;;;;4990486;28;20058;-62
2024/03/23 09:08:11;;;;;;;1.67;1.10;;;;;;;;;;4989093;28;20083;-62
2024/03/23 09:10:40;;;;;;;2.97;1.60;;;;;;;;;;4989211;28;20054;-62
2024/03/23 09:13:07;;;;;;;;;;;;;;;;;;4990977;28;20394;-62
2024/03/23 09:15:38;;;;;;;2.95;1.35;;;;;;;;;;4993525;28;19914;-63
2024/03/23 09:18:04;;;;;;;4.03;1.50;;;;;;;;;;4992610;28;20057;-62
2024/03/23 09:20:33;;;;;;;4.57;1.92;;;;;;;;;;4994588;28;20425;-62
2024/03/23 09:22:59;;;;;;;3.88;1.73;;;;;;;;;;4992646;28;20050;-61
2024/03/23 09:25:25;;;;;;;3.85;1.67;;;;;;;;;;4998511;28;20045;-61
2024/03/23 09:27:51;;;;;;;5.35;1.70;;;;;;;;;;4994470;28;20038;-62
2024/03/23 09:30:17;;;;;;;4.30;1.58;;;;;;;;;;4996164;28;20038;-61
2024/03/23 09:32:44;;;;;;;4.95;1.90;;;;;;;;;;4996217;28;20051;-62
2024/03/23 09:35:10;;;;;;;5.78;2.08;;;;;;;;;;4994172;28;20405;-62
2024/03/23 09:37:39;;;;;;;3.75;2.03;;;;;;;;;;4993364;28;20422;-62
2024/03/23 09:40:11;;;;;;;6.97;2.10;;;;;;;;;;4987748;28;20402;-62
2024/03/23 09:42:38;;;;;;;8.27;1.95;;;;;;;;;;4994623;28;20053;-62
2024/03/23 09:45:17;;;;;;;6.18;2.80;;;;;;;;;;4992873;28;20054;-61
2024/03/23 09:47:44;;;;;;;5.18;2.10;;;;;;;;;;4991370;28;20038;-61
2024/03/23 09:50:10;;;;;;;5.20;2.38;;;;;;;;;;4990795;28;20049;-62
2024/03/23 09:52:36;;;;;;;5.57;2.80;;;;;;;;;;4995332;28;20042;-61
2024/03/23 09:55:04;;;;;;;6.70;3.00;;;;;;;;;;4993026;28;20046;-61
2024/03/23 09:57:30;;;;;;;5.57;2.10;;;;;;;;;;4995373;28;20050;-61
2024/03/23 09:59:57;;;;;;;9.15;3.20;;;;;;;;;;4991211;28;20050;-61
2024/03/23 10:02:25;;;;;;;4.78;2.50;;;;;;;;;;4990274;28;20438;-61
2024/03/23 10:04:51;;;;;;;6.25;2.78;;;;;;;;;;4992301;28;20413;-62
2024/03/23 10:07:24;;;;;;;4.60;2.58;;;;;;;;;;4992392;28;20054;-62
2024/03/23 10:09:53;;;;;;;5.45;2.45;;;;;;;;;;4991043;28;20049;-62
2024/03/23 10:12:20;;;;;;;8.67;3.07;;;;;;;;;;4989935;28;20046;-62
2024/03/23 10:14:46;;;;;;;6.63;3.47;;;;;;;;;;4993568;28;20041;-61
2024/03/23 10:17:13;;;;;;;5.65;3.08;;;;;;;;;;4989363;28;20041;-61
2024/03/23 10:19:42;;;;;;;6.55;2.90;;;;;;;;;;4993006;28;20363;-62
2024/03/23 10:22:09;;;;;;;6.90;2.92;;;;;;;;;;4992178;28;20083;-62
2024/03/23 10:24:35;;;;;;;5.78;3.10;;;;;;;;;;4988233;28;20050;-61
2024/03/23 10:27:01;;;;;;;8.38;3.67;;;;;;;;;;4989975;28;20061;-62
2024/03/23 10:29:28;;;;;;;10.20;3.85;;;;;;;;;;4995170;28;20050;-62
2024/03/23 10:32:07;;;;;;;6.97;2.70;;;;;;;;;;4989421;28;20038;-61
2024/03/23 10:34:34;;;;;;;6.47;3.33;;;;;;;;;;4986666;28;20038;-61
2024/03/23 10:37:02;;;;;;;10.88;3.13;;;;;;;;;;4997178;28;20438;-61
2024/03/23 10:39:32;;;;;;;7.35;2.97;;;;;;;;;;4990346;28;20042;-62
2024/03/23 10:42:01;;;;;;;6.28;3.15;;;;;;;;;;5000558;28;20035;-62
2024/03/23 10:44:29;;;;;;;6.88;3.22;;;;;;;;;;4987088;28;20045;-61
2024/03/23 10:46:59;;;;;;;4.97;2.40;;;;;;;;;;4988673;28;20501;-61
2024/03/23 10:49:26;;;;;;;7.32;3.20;;;;;;;;;;4989206;28;20054;-62
2024/03/23 10:51:52;;;;;;;7.82;2.90;;;;;;;;;;4990312;28;20050;-62
2024/03/23 10:54:19;;;;;;;9.93;3.08;;;;;;;;;;4988909;28;20524;-61
2024/03/23 10:56:47;;;;;;;15.48;5.38;;;;;;;;;;4993520;28;20061;-62
2024/03/23 10:59:14;;;;;;;7.68;3.85;;;;;;;;;;4990213;28;20402;-62
2024/03/23 11:01:54;;;;;;;7.07;3.28;;;;;;;;;;4987577;28;20050;-61
2024/03/23 11:04:30;;;;;;;9.48;3.70;;;;;;;;;;4989950;28;20046;-61
2024/03/23 11:06:57;;;;;;;8.60;3.85;;;;;;;;;;4988820;28;20043;-63
2024/03/23 11:09:38;;;;;;;8.02;2.90;;;;;;;;;;4987654;28;20065;-62
2024/03/23 11:12:30;;;;;;;8.80;3.42;;;;;;;;;;4986625;28;20030;-61
2024/03/23 11:14:56;;;;;;;9.00;2.42;;;;;;;;;;4990259;28;20041;-62
2024/03/23 11:17:24;;;;;;;2.85;1.30;;;;;;;;;;4991244;28;20030;-64
2024/03/23 11:20:00;;;;;;;4.85;1.38;;;;;;;;;;4991595;28;20054;-63
2024/03/23 11:22:49;;;;;;;3.03;1.65;;;;;;;;;;4994174;28;20044;-63
2024/03/23 11:25:21;;;;;;;4.65;1.73;;;;;;;;;;4992804;28;20047;-62
2024/03/23 11:27:49;;;;;;;3.83;1.85;;;;;;;;;;4994967;28;20045;-63
2024/03/23 11:30:20;;;;;;;5.15;2.13;;;;;;;;;;4987540;28;20206;-63
2024/03/23 11:32:47;;;;;;;3.97;2.47;;;;;;;;;;4985247;28;20034;-61
2024/03/23 11:35:29;;;;;;;4.47;2.00;;;;;;;;;;4985691;28;20034;-62
2024/03/23 11:38:06;;;;;;;10.85;4.30;;;;;;;;;;4987654;28;20045;-63
2024/03/23 11:40:33;;;;;;;6.97;3.63;;;;;;;;;;4987710;28;20038;-63
2024/03/23 11:43:02;;;;;;;6.40;2.30;;;;;;;;;;4982110;28;20049;-62
2024/03/23 11:45:33;;;;;;;5.50;2.20;;;;;;;;;;4986019;28;20045;-62
2024/03/23 11:48:10;;;;;;;3.40;1.85;;;;;;;;;;4985608;28;20502;-62
2024/03/23 11:50:40;;;;;;;4.57;1.95;;;;;;;;;;4994441;28;20039;-63
2024/03/23 11:53:20;;;;;;;7.75;2.45;;;;;;;;;;4991941;28;20041;-63
2024/03/23 11:55:50;;;;;;;;;;;;;;;;;;4992414;28;20498;-63
2024/03/23 11:58:22;;;;;;;6.40;3.33;;;;;;;;;;4988448;28;19923;-63
2024/03/23 12:01:01;;;;;;;5.65;1.83;;;;;;;;;;4989193;28;20042;-63
2024/03/23 12:03:31;;;;;;;;;;;;;;;;;;4984354;28;20519;-63
2024/03/23 12:06:00;;;;;;;6.57;2.78;;;;;;;;;;4989199;28;19918;-63
2024/03/23 12:08:30;;;;;;;4.20;2.17;;;;;;;;;;4989377;28;20058;-63
2024/03/23 12:11:16;;;;;;;4.00;2.20;;;;;;;;;;4989225;28;20034;-63
2024/03/23 12:13:44;;;;;;;3.42;1.80;;;;;;;;;;4991577;28;20042;-63
2024/03/23 12:16:10;;;;;;;3.88;1.50;;;;;;;;;;4990717;28;20038;-63
2024/03/23 12:18:37;;;;;;;7.35;2.20;;;;;;;;;;4992424;28;20046;-63
2024/03/23 12:21:04;;;;;;;7.45;2.22;;;;;;;;;;4989290;28;20038;-63
2024/03/23 12:23:30;;;;;;;5.72;1.90;;;;;;;;;;4988539;28;20057;-63
2024/03/23 12:25:56;;;;;;;6.65;1.77;;;;;;;;;;4988610;28;20057;-64
2024/03/23 12:28:22;;;;;;;8.23;2.10;;;;;;;;;;4988486;28;20859;-63
2024/03/23 12:30:48;;;;;;;4.82;1.88;;;;;;;;;;4985869;28;20051;-63
2024/03/23 12:33:14;;;;;;;5.10;1.60;;;;;;;;;;4984467;28;20058;-64
2024/03/23 12:35:40;;;;;;;9.52;2.20;;;;;;;;;;4990095;28;20045;-65
2024/03/23 12:38:07;;;;;;;7.50;1.83;;;;;;;;;;4994188;28;20038;-62
2024/03/23 12:40:33;;;;;;;8.48;2.88;;;;;;;;;;4994231;28;20058;-62
2024/03/23 12:42:59;;;;;;;7.57;1.83;;;;;;;;;;4988799;28;20062;-62
2024/03/23 12:45:25;;;;;;;4.55;2.20;;;;;;;;;;4992368;28;20042;-62
2024/03/23 12:47:54;;;;;;;5.93;2.05;;;;;;;;;;4997493;28;20046;-62
2024/03/23 12:50:20;;;;;;;5.65;2.20;;;;;;;;;;4989942;28;20061;-63
2024/03/23 12:52:47;;;;;;;6.90;2.00;;;;;;;;;;4990782;28;20053;-64
2024/03/23 12:55:13;;;;;;;6.40;2.15;;;;;;;;;;4995519;28;20033;-63
2024/03/23 12:57:40;;;;;;;7.45;2.53;;;;;;;;;;4991199;28;20042;-63
2024/03/23 13:00:10;;;;;;;5.40;2.10;;;;;;;;;;4978233;28;20054;-63
2024/03/23 13:02:36;;;;;;;6.32;2.22;;;;;;;;;;4989349;28;20046;-63
2024/03/23 13:05:02;;;;;;;4.88;2.20;;;;;;;;;;4990976;28;20034;-63
2024/03/23 13:07:28;;;;;;;8.30;2.22;;;;;;;;;;4988781;28;20053;-62
2024/03/23 13:09:56;;;;;;;8.13;2.20;;;;;;;;;;4968995;28;20494;-63
2024/03/23 13:12:23;;;;;;;9.77;3.60;;;;;;;;;;4988153;28;20038;-63
2024/03/23 13:14:49;;;;;;;9.07;3.55;;;;;;;;;;4995251;28;20046;-62
2024/03/23 13:17:15;;;;;;;8.60;3.05;;;;;;;;;;4992358;28;20050;-62
2024/03/23 13:19:41;;;;;;;7.38;2.75;;;;;;;;;;4986940;28;20049;-62
2024/03/23 13:22:08;;;;;;;5.13;2.50;;;;;;;;;;4987573;28;20528;-62
2024/03/23 13:24:34;;;;;;;11.93;4.95;;;;;;;;;;4993989;28;20042;-61
2024/03/23 13:27:00;;;;;;;5.75;2.63;;;;;;;;;;4995429;28;20046;-62
2024/03/23 13:29:26;;;;;;;6.00;2.28;;;;;;;;;;4989740;28;20069;-63
2024/03/23 13:31:53;;;;;;;9.75;2.25;;;;;;;;;;4985501;28;20046;-62
2024/03/23 13:34:19;;;;;;;7.20;1.90;;;;;;;;;;4991271;28;20033;-63
2024/03/23 13:36:46;;;;;;;7.55;2.28;;;;;;;;;;4987530;28;20043;-62
2024/03/23 13:39:13;;;;;;;7.68;2.17;;;;;;;;;;4987790;28;20042;-62
2024/03/23 13:41:41;;;;;;;5.80;2.05;;;;;;;;;;4988498;28;20410;-63
2024/03/23 13:44:07;;;;;;;5.95;2.03;;;;;;;;;;4989253;28;20051;-63
2024/03/23 13:46:34;;;;;;;5.88;1.85;;;;;;;;;;4988376;28;20499;-63
2024/03/23 13:49:00;;;;;;;8.23;1.95;;;;;;;;;;4983673;28;20058;-63
2024/03/23 13:51:27;;;;;;;4.28;2.08;;;;;;;;;;4990707;28;20054;-63
2024/03/23 13:54:01;;;;;;;5.07;2.10;;;;;;;;;;4991294;28;20034;-63
2024/03/23 13:56:31;;;;;;;4.50;1.92;;;;;;;;;;4989809;28;20055;-63
2024/03/23 13:58:57;;;;;;;4.35;1.80;;;;;;;;;;4989340;28;20616;-62
2024/03/23 14:01:24;;;;;;;7.55;2.30;;;;;;;;;;4987926;28;20050;-62
2024/03/23 14:03:50;;;;;;;2.45;1.58;;;;;;;;;;4989101;28;20049;-62
2024/03/23 14:06:16;;;;;;;5.35;1.80;;;;;;;;;;4990420;28;20086;-64
2024/03/23 14:08:43;;;;;;;3.50;2.33;;;;;;;;;;4991276;28;20072;-62
2024/03/23 14:11:10;;;;;;;3.80;1.52;;;;;;;;;;4992575;28;20406;-63
2024/03/23 14:13:36;;;;;;;1.92;1.42;;;;;;;;;;4988726;28;20054;-63
2024/03/23 14:16:03;;;;;;;3.72;1.45;;;;;;;;;;4992394;28;20418;-64
2024/03/23 14:18:29;;;;;;;5.05;1.38;;;;;;;;;;4991556;28;20506;-64
2024/03/23 14:21:00;;;;;;;4.95;1.73;;;;;;;;;;4978715;22;20126;-62
2024/03/23 14:23:34;;;;;;;5.00;1.42;;;;;;;;;;4949488;28;20047;-63
2024/03/23 14:26:00;;;;;;;2.38;1.20;;;;;;;;;;4952694;28;20051;-63
2024/03/23 14:28:26;;;;;;;3.22;1.42;;;;;;;;;;4950642;28;20054;-63
2024/03/23 14:30:55;;;;;;;2.70;1.17;;;;;;;;;;4946878;28;20423;-63
2024/03/23 14:33:22;;;;;;;4.15;1.27;;;;;;;;;;4948799;28;20522;-63
2024/03/23 14:35:55;;;;;;;3.17;1.20;;;;;;;;;;4952105;28;20078;-63
2024/03/23 14:38:21;;;;;;;2.65;1.10;;;;;;;;;;4950361;28;20051;-63
2024/03/23 14:40:47;;;;;;;5.50;1.65;;;;;;;;;;4945414;28;20039;-62
2024/03/23 14:43:14;;;;;;;3.22;1.45;;;;;;;;;;4951701;28;20556;-63
2024/03/23 14:46:15;;;;;;;3.90;1.20;;;;;;;;;;4949021;28;20038;-63
2024/03/23 14:48:43;;;;;;;2.00;1.05;;;;;;;;;;4944734;28;20035;-64